createdAt,value
2022-08-27T00:01:16.464Z,25.09
2022-08-27T00:03:44.133Z,25.08
2022-08-27T00:06:11.215Z,25.07
2022-08-27T00:08:38.261Z,25.07
2022-08-27T00:11:05.320Z,25.07
2022-08-27T00:13:32.363Z,25.05
2022-08-27T00:15:59.422Z,25.05
2022-08-27T00:18:26.966Z,25.05
2022-08-27T00:20:54.016Z,25.05
2022-08-27T00:23:21.075Z,25.04
2022-08-27T00:25:48.129Z,25.03
2022-08-27T00:28:15.332Z,25.03
2022-08-27T00:30:42.446Z,25.04
2022-08-27T00:33:09.496Z,25.02
2022-08-27T00:35:36.810Z,25.01
2022-08-27T00:38:03.974Z,25.00
2022-08-27T00:40:31.156Z,24.99
2022-08-27T00:42:58.250Z,24.99
2022-08-27T00:45:26.708Z,24.97
2022-08-27T00:47:54.474Z,24.98
2022-08-27T00:50:21.508Z,24.95
2022-08-27T00:52:48.811Z,24.97
2022-08-27T00:55:16.482Z,24.97
2022-08-27T00:57:43.532Z,24.96
2022-08-27T01:00:10.570Z,24.95
2022-08-27T01:02:38.133Z,24.93
2022-08-27T01:05:05.261Z,24.94
2022-08-27T01:07:32.319Z,24.95
2022-08-27T01:09:59.366Z,24.93
2022-08-27T01:12:26.421Z,24.94
2022-08-27T01:14:53.480Z,24.95
2022-08-27T01:17:20.556Z,24.91
2022-08-27T01:19:47.620Z,24.91
2022-08-27T01:22:21.812Z,24.91
2022-08-27T01:24:50.639Z,24.90
2022-08-27T01:27:17.852Z,24.91
2022-08-27T01:29:45.056Z,24.89
2022-08-27T01:32:12.188Z,24.89
2022-08-27T01:34:39.294Z,24.89
2022-08-27T01:37:06.719Z,24.88
2022-08-27T01:39:33.805Z,24.88
2022-08-27T01:42:00.864Z,24.86
2022-08-27T01:44:28.312Z,24.86
2022-08-27T01:46:55.429Z,24.87
2022-08-27T01:49:22.496Z,24.84
2022-08-27T01:51:49.572Z,24.82
2022-08-27T01:54:16.703Z,24.83
2022-08-27T01:56:43.753Z,24.80
2022-08-27T01:59:10.803Z,24.81
2022-08-27T02:01:37.876Z,24.81
2022-08-27T02:04:04.996Z,24.81
2022-08-27T02:06:32.070Z,24.81
2022-08-27T02:09:00.179Z,24.79
2022-08-27T02:11:27.236Z,24.78
2022-08-27T02:13:54.287Z,24.80
2022-08-27T02:16:22.282Z,24.80
2022-08-27T02:18:49.392Z,24.79
2022-08-27T02:21:17.967Z,24.81
2022-08-27T02:23:45.439Z,24.82
2022-08-27T02:26:12.660Z,24.84
2022-08-27T02:28:40.683Z,24.83
2022-08-27T02:31:07.884Z,24.81
2022-08-27T02:33:34.974Z,24.80
2022-08-27T02:36:02.023Z,24.78
2022-08-27T02:38:29.811Z,24.78
2022-08-27T02:40:56.858Z,24.80
2022-08-27T02:43:25.099Z,24.80
2022-08-27T02:45:52.659Z,24.81
2022-08-27T02:48:19.688Z,24.84
2022-08-27T02:50:46.828Z,24.82
2022-08-27T02:53:13.903Z,24.84
2022-08-27T02:55:41.059Z,24.81
2022-08-27T02:58:08.570Z,24.83
2022-08-27T03:00:35.658Z,24.81
2022-08-27T03:03:02.766Z,24.79
2022-08-27T03:05:29.843Z,24.80
2022-08-27T03:07:59.425Z,24.77
2022-08-27T03:10:26.456Z,24.75
2022-08-27T03:12:53.504Z,24.75
2022-08-27T03:15:20.606Z,24.76
2022-08-27T03:18:06.504Z,24.76
2022-08-27T03:20:33.560Z,24.74
2022-08-27T03:23:00.633Z,24.73
2022-08-27T03:25:27.913Z,24.76
2022-08-27T03:27:54.971Z,24.73
2022-08-27T03:30:22.033Z,24.76
2022-08-27T03:32:49.117Z,24.78
2022-08-27T03:35:16.166Z,24.75
2022-08-27T03:37:43.437Z,24.78
2022-08-27T03:40:10.615Z,24.76
2022-08-27T03:42:37.747Z,24.74
2022-08-27T03:45:04.976Z,24.72
2022-08-27T03:47:32.326Z,24.75
2022-08-27T03:50:00.711Z,24.73
2022-08-27T03:52:27.805Z,24.72
2022-08-27T03:54:54.851Z,24.73
2022-08-27T03:57:21.897Z,24.73
2022-08-27T03:59:49.007Z,24.71
2022-08-27T04:02:21.347Z,24.70
2022-08-27T04:04:48.435Z,24.68
2022-08-27T04:07:15.497Z,24.67
2022-08-27T04:09:42.558Z,24.66
2022-08-27T04:12:09.780Z,24.68
2022-08-27T04:14:36.974Z,24.66
2022-08-27T04:17:04.014Z,24.63
2022-08-27T04:19:33.198Z,24.66
2022-08-27T04:22:00.451Z,24.64
2022-08-27T04:24:27.501Z,24.64
2022-08-27T04:26:54.552Z,24.65
2022-08-27T04:29:21.602Z,24.66
2022-08-27T04:31:48.707Z,24.67
2022-08-27T04:34:15.754Z,24.65
2022-08-27T04:36:42.862Z,24.66
2022-08-27T04:39:09.899Z,24.64
2022-08-27T04:41:36.998Z,24.67
2022-08-27T04:44:04.047Z,24.65
2022-08-27T04:46:31.142Z,24.68
2022-08-27T04:48:58.344Z,24.66
2022-08-27T04:51:25.389Z,24.64
2022-08-27T04:53:52.447Z,24.65
2022-08-27T04:56:21.804Z,24.65
2022-08-27T04:58:48.853Z,24.63
2022-08-27T05:01:15.982Z,24.66
2022-08-27T05:03:43.105Z,24.67
2022-08-27T05:06:10.361Z,24.65
2022-08-27T05:08:37.438Z,24.65
2022-08-27T05:11:04.485Z,24.63
2022-08-27T05:13:31.578Z,24.63
2022-08-27T05:15:58.933Z,24.62
2022-08-27T05:18:26.059Z,24.62
2022-08-27T05:20:53.149Z,24.61
2022-08-27T05:23:20.731Z,24.60
2022-08-27T05:25:47.774Z,24.63
2022-08-27T05:28:16.142Z,24.63
2022-08-27T05:30:43.755Z,24.64
2022-08-27T05:33:14.958Z,24.63
2022-08-27T05:35:42.091Z,24.63
2022-08-27T05:38:09.846Z,24.65
2022-08-27T05:40:37.085Z,24.64
2022-08-27T05:43:04.295Z,24.62
2022-08-27T05:45:31.360Z,24.62
2022-08-27T05:47:58.771Z,24.64
2022-08-27T05:50:25.911Z,24.64
2022-08-27T05:52:52.962Z,24.62
2022-08-27T05:55:19.994Z,24.59
2022-08-27T05:57:47.041Z,24.60
2022-08-27T06:00:32.920Z,24.60
2022-08-27T06:03:00.007Z,24.60
2022-08-27T06:05:27.122Z,24.62
2022-08-27T06:07:54.364Z,24.59
2022-08-27T06:10:21.475Z,24.57
2022-08-27T06:12:48.530Z,24.60
2022-08-27T06:15:15.554Z,24.59
2022-08-27T06:17:42.923Z,24.61
2022-08-27T06:20:10.909Z,24.63
2022-08-27T06:22:37.954Z,24.62
2022-08-27T06:25:05.051Z,24.62
2022-08-27T06:27:32.095Z,24.61
2022-08-27T06:30:00.458Z,24.61
2022-08-27T06:32:27.491Z,24.61
2022-08-27T06:34:54.543Z,24.60
2022-08-27T06:37:21.596Z,24.60
2022-08-27T06:39:48.656Z,24.60
2022-08-27T06:42:15.722Z,24.59
2022-08-27T06:44:42.817Z,24.60
2022-08-27T06:47:09.923Z,24.59
2022-08-27T06:49:37.006Z,24.62
2022-08-27T06:52:04.085Z,24.63
2022-08-27T06:54:31.223Z,24.61
2022-08-27T06:56:58.731Z,24.61
2022-08-27T06:59:26.234Z,24.60
2022-08-27T07:01:53.312Z,24.61
2022-08-27T07:04:20.427Z,24.62
2022-08-27T07:06:47.491Z,24.61
2022-08-27T07:09:14.536Z,24.63
2022-08-27T07:11:41.659Z,24.62
2022-08-27T07:14:08.711Z,24.64
2022-08-27T07:16:35.841Z,24.63
2022-08-27T07:19:03.831Z,24.65
2022-08-27T07:21:31.404Z,24.61
2022-08-27T07:23:59.841Z,24.62
2022-08-27T07:26:26.973Z,24.62
2022-08-27T07:28:54.086Z,24.62
2022-08-27T07:31:21.207Z,24.59
2022-08-27T07:33:52.607Z,24.60
2022-08-27T07:36:20.300Z,24.57
2022-08-27T07:38:57.003Z,24.57
2022-08-27T07:41:30.782Z,24.57
2022-08-27T07:44:17.590Z,24.57
2022-08-27T07:46:47.815Z,24.58
2022-08-27T07:49:15.610Z,24.56
2022-08-27T07:51:42.648Z,24.61
2022-08-27T07:54:09.694Z,24.60
2022-08-27T07:56:36.739Z,24.60
2022-08-27T07:59:03.806Z,24.59
2022-08-27T08:01:30.899Z,24.59
2022-08-27T08:03:57.984Z,24.58
2022-08-27T08:06:25.074Z,24.57
2022-08-27T08:08:52.244Z,24.57
2022-08-27T08:11:20.406Z,24.59
2022-08-27T08:13:47.548Z,24.61
2022-08-27T08:16:14.578Z,24.62
2022-08-27T08:18:41.640Z,24.61
2022-08-27T08:21:08.715Z,24.62
2022-08-27T08:23:35.771Z,24.59
2022-08-27T08:26:02.866Z,24.59
2022-08-27T08:28:30.257Z,24.58
2022-08-27T08:30:57.392Z,24.58
2022-08-27T08:33:24.631Z,24.57
2022-08-27T08:35:51.706Z,24.60
2022-08-27T08:38:18.973Z,24.61
2022-08-27T08:40:46.019Z,24.60
2022-08-27T08:43:13.075Z,24.63
2022-08-27T08:45:40.171Z,24.60
2022-08-27T08:48:07.346Z,24.64
2022-08-27T08:50:34.868Z,24.64
2022-08-27T08:53:01.915Z,24.61
2022-08-27T08:55:28.956Z,24.63
2022-08-27T08:57:55.995Z,24.65
2022-08-27T09:00:23.030Z,24.63
2022-08-27T09:02:50.547Z,24.63
2022-08-27T09:05:17.703Z,24.68
2022-08-27T09:07:45.738Z,24.65
2022-08-27T09:10:14.544Z,24.65
2022-08-27T09:12:41.613Z,24.67
2022-08-27T09:15:11.398Z,24.68
2022-08-27T09:17:40.287Z,24.69
2022-08-27T09:20:08.582Z,24.69
2022-08-27T09:22:40.406Z,24.67
2022-08-27T09:25:07.445Z,24.63
2022-08-27T09:27:34.499Z,24.62
2022-08-27T09:30:01.580Z,24.65
2022-08-27T09:32:28.683Z,24.66
2022-08-27T09:34:55.711Z,24.66
2022-08-27T09:37:22.759Z,24.63
2022-08-27T09:40:01.550Z,24.66
2022-08-27T09:42:29.854Z,24.65
2022-08-27T09:44:56.934Z,24.64
2022-08-27T09:47:23.978Z,24.70
2022-08-27T09:49:51.068Z,24.75
2022-08-27T09:52:20.364Z,24.69
2022-08-27T09:54:48.260Z,24.67
2022-08-27T09:57:15.298Z,24.67
2022-08-27T09:59:42.600Z,24.65
2022-08-27T10:02:11.932Z,24.65
2022-08-27T10:04:50.785Z,24.70
2022-08-27T10:07:19.209Z,24.69
2022-08-27T10:09:47.093Z,24.71
2022-08-27T10:12:14.224Z,24.70
2022-08-27T10:14:41.262Z,24.68
2022-08-27T10:17:08.366Z,24.73
2022-08-27T10:19:35.490Z,24.75
2022-08-27T10:22:02.575Z,24.76
2022-08-27T10:24:29.672Z,24.73
2022-08-27T10:26:56.714Z,24.69
2022-08-27T10:29:23.811Z,24.67
2022-08-27T10:31:50.900Z,24.66
2022-08-27T10:34:17.962Z,24.66
2022-08-27T10:36:45.008Z,24.71
2022-08-27T10:39:12.144Z,24.67
2022-08-27T10:41:39.236Z,24.65
2022-08-27T10:44:06.277Z,24.65
2022-08-27T10:46:33.399Z,24.74
2022-08-27T10:49:00.486Z,24.73
2022-08-27T10:51:29.295Z,24.77
2022-08-27T10:53:56.353Z,24.78
2022-08-27T10:56:23.391Z,24.74
2022-08-27T10:58:50.471Z,24.75
2022-08-27T11:01:17.565Z,24.78
2022-08-27T11:03:44.672Z,24.80
2022-08-27T11:06:11.727Z,24.78
2022-08-27T11:08:38.772Z,24.76
2022-08-27T11:11:35.074Z,24.76
2022-08-27T11:13:52.934Z,24.78
2022-08-27T11:16:20.066Z,24.75
2022-08-27T11:18:47.159Z,24.79
2022-08-27T11:21:14.269Z,24.76
2022-08-27T11:23:41.315Z,24.76
2022-08-27T11:26:08.372Z,24.80
2022-08-27T11:28:37.680Z,24.81
2022-08-27T11:31:04.979Z,24.78
2022-08-27T11:33:32.066Z,24.79
2022-08-27T11:35:59.100Z,24.82
2022-08-27T11:38:27.619Z,24.75
2022-08-27T11:40:54.689Z,24.77
2022-08-27T11:43:21.994Z,24.77
2022-08-27T11:45:49.052Z,24.83
2022-08-27T11:48:16.087Z,24.79
2022-08-27T11:50:43.186Z,24.80
2022-08-27T11:53:10.238Z,24.83
2022-08-27T11:55:37.286Z,24.81
2022-08-27T11:58:04.549Z,24.84
2022-08-27T12:00:33.777Z,24.79
2022-08-27T12:03:00.924Z,24.84
2022-08-27T12:05:28.572Z,24.86
2022-08-27T12:07:55.712Z,24.89
2022-08-27T12:10:22.751Z,24.88
2022-08-27T12:12:49.823Z,24.90
2022-08-27T12:15:17.467Z,24.90
2022-08-27T12:17:44.522Z,24.90
2022-08-27T12:20:11.624Z,24.89
2022-08-27T12:22:58.654Z,24.90
2022-08-27T12:25:25.686Z,24.93
2022-08-27T12:27:52.731Z,24.90
2022-08-27T12:30:20.051Z,24.90
2022-08-27T12:32:47.215Z,24.84
2022-08-27T12:35:14.279Z,24.88
2022-08-27T12:37:42.547Z,24.91
2022-08-27T12:40:10.350Z,24.90
2022-08-27T12:42:37.472Z,24.93
2022-08-27T12:45:04.574Z,24.91
2022-08-27T12:47:32.142Z,24.92
2022-08-27T12:49:59.209Z,24.95
2022-08-27T12:52:26.271Z,24.96
2022-08-27T12:54:56.247Z,24.93
2022-08-27T12:57:23.412Z,24.96
2022-08-27T12:59:50.469Z,25.02
2022-08-27T13:02:17.626Z,25.02
2022-08-27T13:04:44.770Z,25.05
2022-08-27T13:07:11.818Z,24.99
2022-08-27T13:09:38.851Z,25.04
2022-08-27T13:12:05.905Z,25.08
2022-08-27T13:14:33.409Z,25.05
2022-08-27T13:17:01.316Z,25.07
2022-08-27T13:19:28.370Z,25.04
2022-08-27T13:21:55.455Z,25.06
2022-08-27T13:24:22.581Z,25.05
2022-08-27T13:26:49.894Z,25.05
2022-08-27T13:29:16.939Z,25.06
2022-08-27T13:31:44.247Z,25.08
2022-08-27T13:34:11.322Z,25.13
2022-08-27T13:36:38.459Z,25.17
2022-08-27T13:39:05.515Z,25.17
2022-08-27T13:41:32.574Z,25.15
2022-08-27T13:43:59.778Z,25.13
2022-08-27T13:46:27.110Z,25.13
2022-08-27T13:48:54.217Z,25.14
2022-08-27T13:51:21.269Z,25.14
2022-08-27T13:54:07.009Z,25.18
2022-08-27T13:56:34.048Z,25.20
2022-08-27T13:59:01.090Z,25.22
2022-08-27T14:01:28.221Z,25.24
2022-08-27T14:03:55.360Z,25.22
2022-08-27T14:06:22.407Z,25.24
2022-08-27T14:08:49.481Z,25.20
2022-08-27T14:11:16.691Z,25.25
2022-08-27T14:13:43.999Z,25.24
2022-08-27T14:16:11.192Z,25.24
2022-08-27T14:18:58.379Z,25.26
2022-08-27T14:21:26.528Z,25.29
2022-08-27T14:23:54.180Z,25.30
2022-08-27T14:26:21.499Z,25.30
2022-08-27T14:28:48.638Z,25.28
2022-08-27T14:31:15.810Z,25.30
2022-08-27T14:33:42.916Z,25.31
2022-08-27T14:36:10.021Z,25.27
2022-08-27T14:38:37.143Z,25.31
2022-08-27T14:41:06.840Z,25.31
2022-08-27T14:43:34.901Z,25.35
2022-08-27T14:46:02.451Z,25.36
2022-08-27T14:48:31.353Z,25.39
2022-08-27T14:50:59.280Z,25.41
2022-08-27T14:53:26.760Z,25.41
2022-08-27T14:55:54.941Z,25.40
2022-08-27T14:58:23.023Z,25.42
2022-08-27T15:00:52.071Z,25.41
2022-08-27T15:03:19.927Z,25.41
2022-08-27T15:05:46.962Z,25.42
2022-08-27T15:08:15.912Z,25.40
2022-08-27T15:10:43.252Z,25.41
2022-08-27T15:13:11.415Z,25.38
2022-08-27T15:15:39.039Z,25.37
2022-08-27T15:18:06.307Z,25.37
2022-08-27T15:20:33.379Z,25.40
2022-08-27T15:23:00.590Z,25.40
2022-08-27T15:25:27.621Z,25.40
2022-08-27T15:27:54.715Z,25.39
2022-08-27T15:30:21.761Z,25.42
2022-08-27T15:32:48.985Z,25.40
2022-08-27T15:35:16.050Z,25.40
2022-08-27T15:37:43.157Z,25.43
2022-08-27T15:40:10.295Z,25.44
2022-08-27T15:42:37.393Z,25.47
2022-08-27T15:45:04.448Z,25.42
2022-08-27T15:47:31.501Z,25.38
2022-08-27T15:49:58.781Z,25.40
2022-08-27T15:52:25.872Z,25.42
2022-08-27T15:55:09.083Z,25.50
2022-08-27T15:57:36.142Z,25.51
2022-08-27T16:00:03.219Z,25.54
2022-08-27T16:02:30.319Z,25.57
2022-08-27T16:04:57.433Z,25.56
2022-08-27T16:07:24.467Z,25.56
2022-08-27T16:09:52.139Z,25.54
2022-08-27T16:12:26.658Z,25.58
2022-08-27T16:14:54.739Z,25.56
2022-08-27T16:17:21.774Z,25.56
2022-08-27T16:19:49.424Z,25.54
2022-08-27T16:22:16.473Z,25.54
2022-08-27T16:24:43.507Z,25.54
2022-08-27T16:27:10.561Z,25.53
2022-08-27T16:29:37.611Z,25.51
2022-08-27T16:32:04.705Z,25.48
2022-08-27T16:34:32.480Z,25.43
2022-08-27T16:37:00.264Z,25.41
2022-08-27T16:39:31.965Z,25.39
2022-08-27T16:42:00.887Z,25.37
2022-08-27T16:44:27.935Z,25.36
2022-08-27T16:46:55.016Z,25.36
2022-08-27T16:49:40.866Z,25.36
2022-08-27T16:52:07.993Z,25.34
2022-08-27T16:54:35.763Z,25.35
2022-08-27T16:57:02.837Z,25.32
2022-08-27T16:59:29.922Z,25.32
2022-08-27T17:01:57.111Z,25.29
2022-08-27T17:04:31.233Z,25.32
2022-08-27T17:07:01.559Z,25.33
2022-08-27T17:09:28.606Z,25.31
2022-08-27T17:11:56.411Z,25.31
2022-08-27T17:14:23.437Z,25.29
2022-08-27T17:16:51.251Z,25.26
2022-08-27T17:19:18.914Z,25.26
2022-08-27T17:21:45.975Z,25.26
2022-08-27T17:24:13.113Z,25.26
2022-08-27T17:26:40.166Z,25.27
2022-08-27T17:29:07.430Z,25.25
2022-08-27T17:31:35.698Z,25.24
2022-08-27T17:34:02.777Z,25.23
2022-08-27T17:36:29.867Z,25.23
2022-08-27T17:38:56.917Z,25.20
2022-08-27T17:41:23.978Z,25.21
2022-08-27T17:43:51.225Z,25.19
2022-08-27T17:46:18.911Z,25.19
2022-08-27T17:48:45.984Z,25.19
2022-08-27T17:51:13.288Z,25.17
2022-08-27T17:53:40.331Z,25.19
2022-08-27T17:56:07.371Z,25.19
2022-08-27T17:58:34.426Z,25.16
2022-08-27T18:01:01.599Z,25.13
2022-08-27T18:03:30.192Z,25.14
2022-08-27T18:06:12.026Z,25.14
2022-08-27T18:08:39.119Z,25.11
2022-08-27T18:11:06.162Z,25.10
2022-08-27T18:13:33.406Z,25.09
2022-08-27T18:16:00.440Z,25.08
2022-08-27T18:18:27.477Z,25.07
2022-08-27T18:20:56.181Z,25.06
2022-08-27T18:23:23.548Z,25.06
2022-08-27T18:25:51.608Z,25.07
2022-08-27T18:28:18.655Z,25.07
2022-08-27T18:30:45.769Z,25.08
2022-08-27T18:33:12.957Z,25.07
2022-08-27T18:35:40.033Z,25.07
2022-08-27T18:38:07.243Z,25.06
2022-08-27T18:40:34.329Z,25.06
2022-08-27T18:43:02.699Z,25.04
2022-08-27T18:45:29.783Z,25.05
2022-08-27T18:47:56.833Z,25.02
2022-08-27T18:50:23.870Z,25.01
2022-08-27T18:52:50.923Z,25.00
2022-08-27T18:55:18.630Z,24.99
2022-08-27T18:57:45.724Z,25.00
2022-08-27T19:00:12.754Z,24.98
2022-08-27T19:02:40.204Z,24.98
2022-08-27T19:05:07.467Z,24.96
2022-08-27T19:07:34.505Z,24.95
2022-08-27T19:10:01.570Z,24.96
2022-08-27T19:12:28.714Z,24.95
2022-08-27T19:14:55.764Z,24.94
2022-08-27T19:17:22.802Z,24.94
2022-08-27T19:19:49.849Z,24.93
2022-08-27T19:22:16.888Z,24.91
2022-08-27T19:24:43.919Z,24.89
2022-08-27T19:27:10.959Z,24.91
2022-08-27T19:29:38.022Z,24.90
2022-08-27T19:32:05.101Z,24.88
2022-08-27T19:34:32.177Z,24.87
2022-08-27T19:36:59.267Z,24.87
2022-08-27T19:39:26.338Z,24.85
2022-08-27T19:41:53.460Z,24.84
2022-08-27T19:44:20.491Z,24.86
2022-08-27T19:46:47.522Z,24.83
2022-08-27T19:49:14.571Z,24.83
2022-08-27T19:51:41.610Z,24.83
2022-08-27T19:54:08.721Z,24.81
2022-08-27T19:56:37.203Z,24.80
2022-08-27T19:59:17.910Z,24.80
2022-08-27T20:01:48.279Z,24.79
2022-08-27T20:04:15.342Z,24.79
2022-08-27T20:06:42.423Z,24.78
2022-08-27T20:09:11.249Z,24.80
2022-08-27T20:11:38.282Z,24.78
2022-08-27T20:14:05.323Z,24.78
2022-08-27T20:16:37.347Z,24.77
2022-08-27T20:19:04.490Z,24.75
2022-08-27T20:21:31.533Z,24.75
2022-08-27T20:23:58.695Z,24.76
2022-08-27T20:26:25.807Z,24.76
2022-08-27T20:28:52.850Z,24.74
2022-08-27T20:31:19.931Z,24.75
2022-08-27T20:33:47.019Z,24.75
2022-08-27T20:36:14.266Z,24.75
2022-08-27T20:38:41.409Z,24.76
2022-08-27T20:41:08.459Z,24.74
2022-08-27T20:43:35.706Z,24.72
2022-08-27T20:46:02.852Z,24.73
2022-08-27T20:48:29.967Z,24.74
2022-08-27T20:50:57.046Z,24.73
2022-08-27T20:53:25.955Z,24.73
2022-08-27T20:55:56.538Z,24.71
2022-08-27T20:58:42.519Z,24.71
2022-08-27T21:01:09.681Z,24.70
2022-08-27T21:03:36.767Z,24.69
2022-08-27T21:06:03.799Z,24.69
2022-08-27T21:08:30.839Z,24.68
2022-08-27T21:10:57.934Z,24.70
2022-08-27T21:13:25.024Z,24.69
2022-08-27T21:15:54.630Z,24.69
2022-08-27T21:18:29.789Z,24.67
2022-08-27T21:20:57.226Z,24.67
2022-08-27T21:23:25.302Z,24.66
2022-08-27T21:25:52.343Z,24.67
2022-08-27T21:28:19.397Z,24.67
2022-08-27T21:30:46.438Z,24.66
2022-08-27T21:33:14.122Z,24.67
2022-08-27T21:35:41.219Z,24.65
2022-08-27T21:38:08.269Z,24.66
2022-08-27T21:40:35.403Z,24.65
2022-08-27T21:43:02.703Z,24.65
2022-08-27T21:45:29.793Z,24.62
2022-08-27T21:47:56.968Z,24.62
2022-08-27T21:50:24.050Z,24.63
2022-08-27T21:52:51.105Z,24.64
2022-08-27T21:55:18.284Z,24.63
2022-08-27T21:57:45.336Z,24.62
2022-08-27T22:00:16.203Z,24.62
2022-08-27T22:02:43.318Z,24.61
2022-08-27T22:05:10.466Z,24.60
2022-08-27T22:07:37.557Z,24.61
2022-08-27T22:10:04.596Z,24.62
2022-08-27T22:12:31.671Z,24.62
2022-08-27T22:14:58.701Z,24.61
2022-08-27T22:17:25.783Z,24.62
2022-08-27T22:19:52.825Z,24.61
2022-08-27T22:22:19.865Z,24.61
2022-08-27T22:24:46.942Z,24.61
2022-08-27T22:27:13.974Z,24.60
2022-08-27T22:29:41.054Z,24.57
2022-08-27T22:32:08.096Z,24.58
2022-08-27T22:34:35.150Z,24.58
2022-08-27T22:37:02.271Z,24.57
2022-08-27T22:39:29.310Z,24.57
2022-08-27T22:41:56.383Z,24.55
2022-08-27T22:44:23.467Z,24.56
2022-08-27T22:46:51.915Z,24.54
2022-08-27T22:49:19.060Z,24.55
2022-08-27T22:51:46.092Z,24.55
2022-08-27T22:54:13.154Z,24.54
2022-08-27T22:56:40.194Z,24.54
2022-08-27T22:59:07.562Z,24.54
2022-08-27T23:01:36.312Z,24.54
2022-08-27T23:04:03.491Z,24.53
2022-08-27T23:06:31.652Z,24.54
2022-08-27T23:08:58.719Z,24.54
2022-08-27T23:11:25.751Z,24.54
2022-08-27T23:13:53.249Z,24.53
2022-08-27T23:16:20.852Z,24.52
2022-08-27T23:18:47.940Z,24.51
2022-08-27T23:21:15.042Z,24.50
2022-08-27T23:23:42.075Z,24.50
2022-08-27T23:26:28.026Z,24.49
2022-08-27T23:28:55.068Z,24.48
2022-08-27T23:31:22.264Z,24.49
2022-08-27T23:33:49.330Z,24.49
2022-08-27T23:36:16.362Z,24.49
2022-08-27T23:38:43.402Z,24.50
2022-08-27T23:41:10.603Z,24.47
2022-08-27T23:43:37.634Z,24.48
2022-08-27T23:46:04.772Z,24.47
2022-08-27T23:48:31.902Z,24.47
2022-08-27T23:50:58.940Z,24.46
2022-08-27T23:53:26.406Z,24.47
2022-08-27T23:55:53.459Z,24.46
2022-08-27T23:58:20.535Z,24.44
